createdAt,value
2023-05-02T02:42:43.314Z,33.72
2023-05-02T02:45:19.030Z,27.65
2023-05-02T02:47:51.350Z,24.00
2023-05-02T02:50:54.710Z,19.67
2023-05-02T03:05:56.419Z,17.48
2023-05-02T03:08:26.514Z,21.42
2023-05-02T03:10:56.186Z,22.08
2023-05-02T03:13:25.314Z,24.42
2023-05-02T03:15:54.896Z,18.25
2023-05-02T03:18:30.205Z,18.40
2023-05-02T03:20:59.602Z,14.68
2023-05-02T03:23:28.765Z,16.45
2023-05-02T03:25:57.834Z,15.18
2023-05-02T03:28:28.825Z,13.38
2023-05-02T03:30:58.888Z,14.82
2023-05-02T03:57:40.819Z,255.45
2023-05-02T04:00:13.801Z,104.60
2023-05-02T04:28:34.180Z,33.83
2023-05-02T04:45:34.023Z,191.63
2023-05-02T04:48:03.886Z,61.45
2023-05-02T05:00:23.044Z,76.13
2023-05-02T06:04:37.900Z,3.75
2023-05-02T06:07:06.793Z,9.00
2023-05-02T06:09:35.557Z,5.80
2023-05-02T06:25:01.837Z,3.90
2023-05-02T06:27:32.953Z,4.38
2023-05-02T06:44:35.991Z,13.85
2023-05-02T06:58:59.138Z,60.03
2023-05-02T07:01:28.169Z,43.70
2023-05-02T07:10:26.129Z,18.45
2023-05-02T07:12:55.552Z,11.85
2023-05-02T07:15:24.637Z,11.63
2023-05-02T07:17:53.579Z,27.80
2023-05-02T07:20:22.682Z,10.20
2023-05-02T07:22:52.227Z,10.35
2023-05-02T07:34:31.329Z,218.38
2023-05-02T07:37:03.547Z,312.35
2023-05-02T07:39:34.848Z,207.98
2023-05-02T07:42:04.714Z,306.08
2023-05-02T07:44:37.988Z,180.35
2023-05-02T07:47:07.444Z,65.28
2023-05-02T07:49:37.833Z,12.30
2023-05-02T07:52:07.047Z,9.35
2023-05-02T07:54:36.889Z,10.10
2023-05-02T07:57:09.175Z,11.30
2023-05-02T07:59:38.054Z,29.50
2023-05-02T08:02:07.351Z,12.80
2023-05-02T08:04:36.505Z,7.70
2023-05-02T08:07:05.467Z,20.40
2023-05-02T08:09:34.781Z,10.00
2023-05-02T08:12:04.220Z,6.33
2023-05-02T08:14:33.310Z,6.70
2023-05-02T08:17:02.641Z,5.57
2023-05-02T08:19:31.549Z,6.78
2023-05-02T08:22:00.671Z,6.85
2023-05-02T08:24:29.585Z,5.95
2023-05-02T08:26:59.031Z,6.43
2023-05-02T08:29:27.841Z,6.90
2023-05-02T08:31:57.113Z,6.72
2023-05-02T08:34:26.914Z,7.60
2023-05-02T08:36:58.266Z,7.28
2023-05-02T08:39:27.441Z,6.95
2023-05-02T08:41:56.659Z,6.10
2023-05-02T08:44:25.555Z,5.90
2023-05-02T08:46:55.667Z,4.72
2023-05-02T08:49:26.990Z,4.30
2023-05-02T08:51:58.339Z,4.10
2023-05-02T08:54:28.213Z,4.07
2023-05-02T08:57:00.628Z,5.20
2023-05-02T08:59:29.574Z,5.07
2023-05-02T09:02:14.395Z,4.60
2023-05-02T09:04:44.659Z,4.40
2023-05-02T09:07:13.730Z,5.28
2023-05-02T09:09:42.602Z,5.97
2023-05-02T09:12:11.563Z,4.43
2023-05-02T09:14:46.056Z,4.28
2023-05-02T09:17:17.529Z,6.25
2023-05-02T09:19:47.139Z,5.53
2023-05-02T09:22:24.883Z,4.40
2023-05-02T09:25:00.272Z,4.43
2023-05-02T09:27:29.919Z,4.00
2023-05-02T09:30:35.304Z,3.45
2023-05-02T09:33:10.105Z,3.85
2023-05-02T09:35:56.741Z,3.97
2023-05-02T09:38:26.631Z,5.93
2023-05-02T09:40:58.584Z,4.68
2023-05-02T09:43:31.513Z,4.50
2023-05-02T09:46:09.501Z,4.93
2023-05-02T09:51:41.055Z,4.38
2023-05-02T09:54:11.341Z,5.13
2023-05-02T09:56:58.275Z,6.13
2023-05-02T09:59:29.613Z,5.00
2023-05-02T10:02:10.552Z,5.38
2023-05-02T10:04:40.840Z,4.97
2023-05-02T10:07:11.724Z,4.85
2023-05-02T10:09:46.569Z,6.13
2023-05-02T10:12:22.314Z,6.53
2023-05-02T10:15:02.781Z,5.40
2023-05-02T10:17:36.914Z,5.13
2023-05-02T10:20:07.945Z,5.95
2023-05-02T10:22:37.914Z,6.90
2023-05-02T10:25:08.005Z,5.85
2023-05-02T10:27:38.681Z,5.55
2023-05-02T10:30:09.353Z,6.95
2023-05-02T10:32:39.393Z,6.78
2023-05-02T10:35:09.410Z,4.80
2023-05-02T10:37:41.743Z,5.50
2023-05-02T10:40:14.569Z,5.22
2023-05-02T10:42:50.660Z,7.20
2023-05-02T10:45:37.009Z,5.28
2023-05-02T10:48:20.366Z,5.13
2023-05-02T10:50:52.370Z,5.03
2023-05-02T10:53:33.362Z,5.10
2023-05-02T10:56:16.387Z,5.15
2023-05-02T10:58:47.573Z,6.10
2023-05-02T11:01:39.508Z,5.65
2023-05-02T11:06:59.770Z,6.07
2023-05-02T11:09:28.903Z,5.00
2023-05-02T11:11:58.470Z,5.20
2023-05-02T11:14:30.729Z,4.20
2023-05-02T11:17:02.586Z,5.05
2023-05-02T11:19:59.781Z,4.47
2023-05-02T11:22:35.501Z,5.93
2023-05-02T11:25:06.418Z,5.00
2023-05-02T11:27:39.190Z,4.95
2023-05-02T11:30:10.164Z,4.18
2023-05-02T11:32:51.896Z,4.93
2023-05-02T11:35:23.771Z,5.15
2023-05-02T11:38:08.313Z,6.05
2023-05-02T11:40:37.252Z,10.30
2023-05-02T11:43:17.818Z,6.38
2023-05-02T11:45:47.267Z,6.75
2023-05-02T11:48:20.987Z,6.40
2023-05-02T11:50:57.287Z,5.47
2023-05-02T11:53:30.284Z,4.28
2023-05-02T11:56:02.657Z,7.43
2023-05-02T11:58:36.136Z,4.72
2023-05-02T12:25:35.031Z,8.70
2023-05-02T12:28:04.801Z,62.38
